Time;durP1;ratioP1;P1;durP2;ratioP2;P2;SDS_P1;SDS_P2;PMS_P1;PMS_P2;Temp;Humidity;BMP_temperature;BMP_pressure;BME280_temperature;BME280_humidity;BME280_pressure;Samples;Min_cycle;Max_cycle;Signal;HPM_P1;HPM_P2
2024/04/23 00:01:34;;;;;;;3.28;1.88;;;13.60;91.00;;;;;;5345153;26;20438;-39
2024/04/23 00:03:59;;;;;;;2.15;1.50;;;13.50;90.90;;;;;;5345587;26;20009;-40
2024/04/23 00:06:25;;;;;;;3.85;1.70;;;13.60;91.00;;;;;;5346040;26;20334;-43
2024/04/23 00:08:50;;;;;;;2.22;1.70;;;13.60;91.00;;;;;;5344435;26;20002;-39
2024/04/23 00:11:16;;;;;;;1.95;1.55;;;13.50;90.90;;;;;;5345697;26;20354;-39
2024/04/23 00:13:41;;;;;;;1.58;1.38;;;13.60;91.00;;;;;;5345612;26;19997;-40
2024/04/23 00:16:07;;;;;;;2.78;1.80;;;13.50;90.90;;;;;;5345607;26;20008;-40
2024/04/23 00:18:33;;;;;;;2.17;1.83;;;13.50;90.90;;;;;;5344732;26;20075;-39
2024/04/23 00:20:58;;;;;;;2.15;1.35;;;13.50;90.90;;;;;;5345660;26;20000;-41
2024/04/23 00:23:24;;;;;;;2.08;1.70;;;13.50;90.90;;;;;;5344960;26;20012;-40
2024/04/23 00:25:50;;;;;;;2.08;1.65;;;13.50;90.90;;;;;;5345191;26;20073;-40
2024/04/23 00:28:16;;;;;;;3.05;1.90;;;13.50;90.90;;;;;;5345659;26;19997;-39
2024/04/23 00:30:42;;;;;;;3.70;1.60;;;13.50;90.90;;;;;;5344468;26;20017;-42
2024/04/23 00:33:09;;;;;;;2.22;1.50;;;13.50;90.90;;;;;;5346063;26;19997;-39
2024/04/23 00:35:35;;;;;;;2.50;1.65;;;13.50;90.90;;;;;;5344710;26;19997;-40
2024/04/23 00:38:01;;;;;;;1.90;1.48;;;13.50;90.90;;;;;;5344987;26;20012;-39
2024/04/23 00:40:30;;;;;;;2.05;1.55;;;13.50;90.90;;;;;;5344175;26;20008;-40
2024/04/23 00:42:56;;;;;;;1.92;1.40;;;13.50;90.80;;;;;;5343065;26;20365;-40
2024/04/23 00:45:28;;;;;;;1.88;1.20;;;13.50;91.20;;;;;;5344494;26;19997;-40
2024/04/23 00:47:54;;;;;;;2.20;1.35;;;13.40;90.90;;;;;;5345270;26;19997;-41
2024/04/23 00:50:20;;;;;;;1.90;1.70;;;13.40;90.80;;;;;;5344487;26;20153;-40
2024/04/23 00:52:46;;;;;;;2.03;1.50;;;13.50;90.80;;;;;;5344790;26;20005;-40
2024/04/23 00:55:13;;;;;;;2.08;1.50;;;13.50;90.80;;;;;;5347723;26;20345;-40
2024/04/23 00:57:39;;;;;;;3.58;1.60;;;13.40;90.70;;;;;;5348269;26;20028;-40
2024/04/23 01:00:06;;;;;;;2.60;1.70;;;13.50;91.10;;;;;;5348274;26;19997;-39
2024/04/23 01:02:32;;;;;;;2.15;1.70;;;13.40;90.70;;;;;;5347736;26;20001;-40
2024/04/23 01:04:58;;;;;;;2.15;1.27;;;13.40;90.80;;;;;;5347384;26;19993;-39
2024/04/23 01:07:23;;;;;;;2.03;1.50;;;13.40;90.80;;;;;;5348278;26;20001;-40
2024/04/23 01:09:50;;;;;;;1.52;1.30;;;13.40;90.70;;;;;;5347859;26;20013;-43
2024/04/23 01:12:15;;;;;;;1.40;1.30;;;13.40;90.80;;;;;;5347379;26;20001;-40
2024/04/23 01:14:43;;;;;;;2.03;1.40;;;13.50;90.80;;;;;;5348376;26;20354;-43
2024/04/23 01:17:10;;;;;;;1.73;1.40;;;13.40;90.70;;;;;;5348152;26;20001;-41
2024/04/23 01:19:40;;;;;;;1.85;1.48;;;13.40;90.70;;;;;;5348981;26;20001;-39
2024/04/23 01:22:11;;;;;;;2.20;1.50;;;13.40;90.60;;;;;;5347977;26;20001;-39
2024/04/23 01:24:48;;;;;;;1.92;1.50;;;13.40;90.60;;;;;;5348578;26;20012;-43
2024/04/23 01:27:15;;;;;;;2.17;1.30;;;13.40;90.60;;;;;;5347973;26;20520;-39
2024/04/23 01:29:41;;;;;;;2.03;1.38;;;13.40;90.60;;;;;;5347366;26;20473;-40
2024/04/23 01:32:08;;;;;;;1.85;1.52;;;13.40;90.60;;;;;;5347258;26;19997;-40
2024/04/23 01:34:36;;;;;;;2.10;1.38;;;13.30;90.60;;;;;;5348318;26;20008;-40
2024/04/23 01:37:04;;;;;;;2.97;1.55;;;13.30;90.60;;;;;;5347861;26;20000;-41
2024/04/23 01:39:30;;;;;;;1.95;1.30;;;13.40;91.00;;;;;;5347570;26;19997;-40
2024/04/23 01:41:57;;;;;;;2.33;1.35;;;13.40;90.60;;;;;;5345983;26;20378;-40
2024/04/23 01:44:24;;;;;;;1.92;1.52;;;13.40;90.60;;;;;;5347722;26;20028;-39
2024/04/23 01:46:50;;;;;;;1.50;1.40;;;13.40;90.60;;;;;;5346807;26;20365;-38
2024/04/23 01:49:16;;;;;;;1.88;1.27;;;13.30;90.50;;;;;;5347145;26;20005;-39
2024/04/23 01:51:42;;;;;;;1.95;1.50;;;13.40;90.60;;;;;;5347743;26;20008;-40
2024/04/23 01:54:08;;;;;;;2.60;1.77;;;13.30;90.50;;;;;;5347592;26;19997;-41
2024/04/23 01:56:34;;;;;;;3.33;1.80;;;13.30;90.50;;;;;;5346425;26;20003;-39
2024/04/23 01:58:59;;;;;;;5.47;1.58;;;13.30;90.50;;;;;;5346869;26;20004;-44
2024/04/23 02:01:28;;;;;;;1.73;1.30;;;13.30;90.50;;;;;;5348589;26;20008;-41
2024/04/23 02:03:54;;;;;;;1.73;1.48;;;13.30;90.50;;;;;;5346672;26;20462;-39
2024/04/23 02:06:19;;;;;;;2.08;1.58;;;13.30;90.50;;;;;;5346718;26;20008;-43
2024/04/23 02:08:46;;;;;;;1.42;1.00;;;13.30;90.50;;;;;;5348351;26;20435;-39
2024/04/23 02:11:12;;;;;;;1.73;1.40;;;13.30;90.50;;;;;;5347117;26;20528;-41
2024/04/23 02:13:37;;;;;;;1.17;1.08;;;13.30;90.40;;;;;;5346982;26;20009;-40
2024/04/23 02:16:03;;;;;;;4.47;1.25;;;13.30;90.50;;;;;;5346783;26;20381;-40
2024/04/23 02:18:29;;;;;;;1.55;1.23;;;13.30;90.40;;;;;;5346357;26;20009;-40
2024/04/23 02:20:54;;;;;;;1.88;1.13;;;13.30;90.40;;;;;;5348335;26;20009;-40
2024/04/23 02:23:20;;;;;;;1.55;1.20;;;13.30;90.40;;;;;;5346820;26;20067;-40
2024/04/23 02:25:46;;;;;;;2.13;1.58;;;13.30;90.40;;;;;;5346336;26;20001;-39
2024/04/23 02:28:11;;;;;;;1.65;1.15;;;13.30;90.40;;;;;;5347029;26;20001;-40
2024/04/23 02:30:37;;;;;;;2.28;1.30;;;13.30;90.40;;;;;;5347189;26;19997;-40
2024/04/23 02:33:03;;;;;;;1.77;1.38;;;13.20;90.40;;;;;;5346400;26;20497;-40
2024/04/23 02:35:29;;;;;;;2.38;1.40;;;13.30;90.40;;;;;;5347578;26;20363;-39
2024/04/23 02:37:55;;;;;;;2.67;1.50;;;13.30;90.40;;;;;;5346582;26;20001;-40
2024/04/23 02:40:20;;;;;;;2.20;1.33;;;13.30;90.30;;;;;;5347284;26;20011;-40
2024/04/23 02:42:46;;;;;;;1.67;1.30;;;13.30;90.40;;;;;;5347212;26;20011;-39
2024/04/23 02:45:11;;;;;;;1.88;1.42;;;13.30;90.30;;;;;;5347424;26;19996;-39
2024/04/23 02:47:37;;;;;;;1.92;1.50;;;13.30;90.30;;;;;;5345948;26;19997;-40
2024/04/23 02:50:03;;;;;;;2.45;1.30;;;13.30;90.30;;;;;;5346455;26;20012;-42
2024/04/23 02:52:28;;;;;;;2.10;1.42;;;13.30;90.30;;;;;;5347042;26;20004;-41
2024/04/23 02:54:54;;;;;;;2.00;1.42;;;13.30;90.30;;;;;;5346887;26;20007;-40
2024/04/23 02:57:20;;;;;;;3.47;1.35;;;13.30;90.30;;;;;;5347630;26;20008;-40
2024/04/23 02:59:45;;;;;;;1.73;1.30;;;13.30;90.30;;;;;;5346785;26;19997;-40
2024/04/23 03:02:11;;;;;;;2.25;1.27;;;13.30;90.20;;;;;;5346805;26;20001;-39
2024/04/23 03:04:37;;;;;;;1.90;1.30;;;13.30;90.30;;;;;;5347381;26;20460;-40
2024/04/23 03:07:03;;;;;;;3.30;1.40;;;13.30;90.20;;;;;;5346249;26;20012;-40
2024/04/23 03:09:29;;;;;;;1.90;1.38;;;13.30;90.20;;;;;;5345969;26;20001;-40
2024/04/23 03:11:55;;;;;;;2.33;1.50;;;13.30;90.20;;;;;;5345750;26;20028;-40
2024/04/23 03:14:21;;;;;;;1.50;1.40;;;13.20;90.20;;;;;;5346513;26;20012;-40
2024/04/23 03:16:47;;;;;;;3.78;1.70;;;13.30;90.20;;;;;;5345049;26;20012;-39
2024/04/23 03:19:12;;;;;;;1.80;1.20;;;13.30;90.20;;;;;;5346925;26;20008;-40
2024/04/23 03:21:55;;;;;;;2.92;1.48;;;13.30;90.20;;;;;;5346710;26;19997;-40
2024/04/23 03:24:23;;;;;;;1.88;1.40;;;13.20;90.20;;;;;;5346151;26;19997;-40
2024/04/23 03:26:49;;;;;;;2.20;1.60;;;13.20;90.20;;;;;;5346883;26;19997;-40
2024/04/23 03:29:15;;;;;;;2.38;1.63;;;13.20;90.50;;;;;;5345530;26;20009;-39
2024/04/23 03:31:42;;;;;;;1.83;1.25;;;13.20;90.20;;;;;;5346230;26;20070;-39
2024/04/23 03:34:07;;;;;;;2.70;1.67;;;13.20;90.10;;;;;;5343768;26;20432;-40
2024/04/23 03:36:33;;;;;;;2.22;1.50;;;13.20;90.10;;;;;;5346642;26;20362;-39
2024/04/23 03:38:59;;;;;;;2.63;1.45;;;13.20;90.10;;;;;;5345939;26;20000;-39
2024/04/23 03:41:25;;;;;;;1.20;1.10;;;13.20;90.20;;;;;;5346260;26;20037;-40
2024/04/23 03:43:51;;;;;;;2.40;1.50;;;13.20;90.10;;;;;;5343981;26;20350;-39
2024/04/23 03:46:17;;;;;;;1.98;1.65;;;13.20;90.10;;;;;;5344385;26;20326;-41
2024/04/23 03:48:42;;;;;;;1.88;1.40;;;13.20;90.10;;;;;;5345856;26;20075;-40
2024/04/23 03:51:08;;;;;;;1.90;1.55;;;13.20;90.20;;;;;;5345560;26;19997;-39
2024/04/23 03:53:33;;;;;;;1.88;1.30;;;13.10;90.10;;;;;;5345541;26;20012;-40
2024/04/23 03:55:59;;;;;;;1.67;1.20;;;13.10;90.10;;;;;;5345395;26;19997;-40
2024/04/23 03:58:24;;;;;;;4.00;1.67;;;13.10;90.10;;;;;;5344290;26;20001;-40
2024/04/23 04:00:50;;;;;;;4.63;1.50;;;13.20;90.10;;;;;;5346349;26;19993;-39
2024/04/23 04:06:06;;;;;;;2.00;1.40;;;13.10;90.10;;;;;;5345348;26;20028;-39
2024/04/23 04:08:38;;;;;;;1.90;1.58;;;13.10;90.10;;;;;;5346865;26;20066;-39
2024/04/23 04:11:04;;;;;;;3.33;1.30;;;13.10;90.10;;;;;;5346771;26;20469;-42
2024/04/23 04:13:32;;;;;;;1.88;1.50;;;13.10;90.00;;;;;;5346343;26;20378;-40
2024/04/23 04:15:59;;;;;;;1.65;1.40;;;13.10;90.00;;;;;;5345598;26;19996;-40
2024/04/23 04:18:25;;;;;;;1.65;1.30;;;13.10;90.00;;;;;;5346173;26;19997;-40
2024/04/23 04:20:50;;;;;;;2.15;1.50;;;13.10;90.10;;;;;;5345462;26;20003;-40
2024/04/23 04:23:16;;;;;;;1.35;1.17;;;13.10;90.00;;;;;;5345443;26;20040;-40
2024/04/23 04:25:42;;;;;;;3.85;1.70;;;13.10;90.00;;;;;;5345958;26;19993;-42
2024/04/23 04:28:07;;;;;;;4.18;1.77;;;13.10;90.00;;;;;;5346135;26;19996;-39
2024/04/23 04:30:33;;;;;;;2.13;1.40;;;13.10;90.00;;;;;;5348571;26;20010;-40
2024/04/23 04:32:58;;;;;;;1.98;1.58;;;13.10;90.00;;;;;;5349448;26;20454;-40
2024/04/23 04:35:24;;;;;;;3.63;1.40;;;13.10;90.00;;;;;;5349538;26;20029;-39
2024/04/23 04:37:49;;;;;;;2.05;1.52;;;13.10;90.00;;;;;;5348666;26;20054;-40
2024/04/23 04:40:15;;;;;;;2.08;1.52;;;13.10;90.00;;;;;;5347890;26;20066;-40
2024/04/23 04:42:41;;;;;;;1.58;1.27;;;13.10;90.00;;;;;;5348881;26;20012;-40
2024/04/23 04:45:06;;;;;;;2.05;1.55;;;13.10;90.00;;;;;;5348612;26;20001;-40
2024/04/23 04:47:33;;;;;;;1.85;1.48;;;13.10;90.00;;;;;;5347816;26;20016;-40
2024/04/23 04:49:58;;;;;;;3.38;1.45;;;13.00;90.00;;;;;;5347949;26;20062;-40
2024/04/23 04:52:24;;;;;;;2.55;1.50;;;13.00;89.90;;;;;;5347396;26;20408;-39
2024/04/23 04:54:50;;;;;;;1.90;1.55;;;13.10;90.00;;;;;;5347553;26;20044;-39
2024/04/23 04:57:15;;;;;;;2.22;1.45;;;13.00;89.90;;;;;;5348389;26;19997;-40
2024/04/23 04:59:41;;;;;;;2.22;1.70;;;13.10;90.00;;;;;;5348505;26;20353;-39
2024/04/23 05:02:06;;;;;;;1.83;1.33;;;13.00;90.00;;;;;;5348274;26;19997;-40
2024/04/23 05:04:33;;;;;;;2.65;1.65;;;13.00;90.00;;;;;;5349468;26;20062;-40
2024/04/23 05:06:59;;;;;;;8.18;3.58;;;13.10;90.00;;;;;;5348006;26;20008;-39
2024/04/23 05:09:24;;;;;;;3.95;3.22;;;12.60;78.80;;;;;;5347352;26;20001;-40
2024/04/23 05:11:50;;;;;;;3.92;3.30;;;12.20;81.80;;;;;;5346757;26;20012;-40
2024/04/23 05:14:16;;;;;;;4.43;3.28;;;12.00;83.50;;;;;;5347722;26;20454;-40
2024/04/23 05:16:43;;;;;;;5.95;3.38;;;12.10;84.50;;;;;;5347694;26;20001;-38
2024/04/23 05:19:10;;;;;;;5.25;3.15;;;12.10;84.70;;;;;;5347978;26;20417;-38
2024/04/23 05:21:35;;;;;;;3.92;3.15;;;12.20;85.20;;;;;;5348026;26;20001;-40
2024/04/23 05:24:01;;;;;;;5.30;3.50;;;12.40;85.60;;;;;;5347934;26;19996;-39
2024/04/23 05:26:27;;;;;;;5.30;3.35;;;12.40;85.80;;;;;;5347530;26;20477;-40
2024/04/23 05:28:53;;;;;;;4.53;3.20;;;12.50;86.00;;;;;;5347626;26;19996;-38
2024/04/23 05:34:03;;;;;;;5.38;3.53;;;12.60;86.20;;;;;;5347718;26;20343;-40
2024/04/23 05:36:28;;;;;;;5.05;3.00;;;12.60;86.40;;;;;;5347302;26;20028;-41
2024/04/23 05:38:54;;;;;;;4.15;2.90;;;12.70;86.50;;;;;;5347093;26;20012;-38
2024/04/23 05:41:19;;;;;;;5.20;3.30;;;12.70;86.70;;;;;;5347159;26;20008;-38
2024/04/23 05:43:45;;;;;;;6.15;3.10;;;12.70;86.90;;;;;;5347835;26;20002;-40
2024/04/23 05:46:11;;;;;;;5.25;2.92;;;12.70;87.20;;;;;;5348399;26;20132;-40
2024/04/23 05:49:14;;;;;;;4.43;3.03;;;12.60;87.30;;;;;;5347193;26;20103;-39
2024/04/23 05:52:17;;;;;;;4.60;3.00;;;12.60;87.50;;;;;;5347132;26;20012;-38
2024/04/23 05:55:20;;;;;;;4.03;2.63;;;12.60;87.80;;;;;;5348098;26;20059;-40
2024/04/23 05:57:47;;;;;;;5.03;2.97;;;12.60;87.70;;;;;;5347549;26;20000;-39
2024/04/23 06:00:13;;;;;;;4.18;2.70;;;12.70;87.80;;;;;;5347580;26;20007;-40
2024/04/23 06:02:38;;;;;;;3.92;2.75;;;12.70;87.90;;;;;;5347364;26;20025;-41
2024/04/23 06:05:05;;;;;;;5.50;2.92;;;12.70;87.80;;;;;;5346498;26;20075;-39
2024/04/23 06:07:30;;;;;;;4.63;2.78;;;12.70;87.90;;;;;;5346939;26;20001;-39
2024/04/23 06:09:56;;;;;;;4.18;2.83;;;12.70;87.90;;;;;;5347092;26;20008;-38
2024/04/23 06:12:21;;;;;;;4.20;2.88;;;12.70;88.00;;;;;;5346386;26;19997;-41
2024/04/23 06:14:47;;;;;;;4.32;2.67;;;12.70;88.00;;;;;;5346515;26;20001;-38
2024/04/23 06:17:22;;;;;;;3.22;2.47;;;12.70;88.00;;;;;;5346906;26;20047;-40
2024/04/23 06:19:51;;;;;;;4.75;2.60;;;12.70;88.10;;;;;;5347068;26;19996;-40
2024/04/23 06:22:18;;;;;;;3.60;2.53;;;12.70;88.20;;;;;;5347395;26;20033;-41
2024/04/23 06:24:43;;;;;;;5.03;2.72;;;12.70;88.20;;;;;;5346764;26;20001;-38
2024/04/23 06:27:09;;;;;;;3.92;2.50;;;12.70;88.30;;;;;;5347171;26;20382;-39
2024/04/23 06:29:34;;;;;;;3.55;2.20;;;12.80;88.30;;;;;;5347490;26;20000;-39
2024/04/23 06:32:00;;;;;;;3.88;2.65;;;12.80;88.30;;;;;;5346317;26;20009;-39
2024/04/23 06:34:26;;;;;;;3.17;2.28;;;12.80;88.30;;;;;;5346804;26;20012;-41
2024/04/23 06:36:51;;;;;;;3.65;2.40;;;12.80;88.40;;;;;;5347128;26;20001;-40
2024/04/23 06:39:17;;;;;;;7.78;2.65;;;12.80;88.50;;;;;;5347087;26;19996;-39
2024/04/23 06:41:43;;;;;;;5.60;2.45;;;12.80;88.50;;;;;;5347463;26;20070;-41
2024/04/23 06:44:08;;;;;;;3.67;2.47;;;12.80;88.50;;;;;;5347182;26;20008;-40
2024/04/23 06:46:34;;;;;;;4.43;2.85;;;12.90;88.50;;;;;;5347161;26;19993;-38
2024/04/23 06:48:59;;;;;;;5.15;2.42;;;12.90;88.50;;;;;;5346470;26;20346;-40
2024/04/23 06:51:25;;;;;;;3.70;2.55;;;12.90;88.60;;;;;;5346304;26;20008;-41
2024/04/23 06:53:50;;;;;;;3.90;2.55;;;12.90;88.60;;;;;;5345948;26;20013;-40
2024/04/23 06:56:16;;;;;;;4.20;2.10;;;12.90;88.50;;;;;;5346304;26;19996;-39
2024/04/23 06:58:42;;;;;;;2.78;2.10;;;12.90;88.40;;;;;;5346038;26;20069;-40
2024/04/23 07:01:08;;;;;;;3.50;2.05;;;12.90;88.40;;;;;;5346689;26;19997;-39
2024/04/23 07:03:34;;;;;;;3.97;2.42;;;12.90;88.40;;;;;;5345785;26;20074;-38
2024/04/23 07:06:00;;;;;;;4.18;2.17;;;12.90;88.50;;;;;;5346365;26;20342;-39
2024/04/23 07:08:25;;;;;;;3.05;2.25;;;12.90;88.50;;;;;;5345880;26;20020;-40
2024/04/23 07:10:57;;;;;;;3.13;2.15;;;12.90;88.60;;;;;;5346407;26;20335;-40
2024/04/23 07:13:23;;;;;;;2.80;2.03;;;13.00;88.70;;;;;;5344761;26;20001;-40
2024/04/23 07:15:49;;;;;;;3.03;2.28;;;13.00;88.80;;;;;;5346693;26;20465;-38
2024/04/23 07:18:14;;;;;;;2.72;2.25;;;13.00;88.80;;;;;;5346044;26;20007;-39
2024/04/23 07:20:40;;;;;;;3.17;2.00;;;13.00;88.90;;;;;;5346533;26;20007;-42
2024/04/23 07:23:06;;;;;;;3.92;2.05;;;13.00;88.90;;;;;;5347072;26;19997;-40
2024/04/23 07:25:31;;;;;;;3.22;1.95;;;13.00;88.80;;;;;;5345366;26;20004;-42
2024/04/23 07:27:57;;;;;;;3.88;2.08;;;13.00;88.80;;;;;;5346142;26;20001;-40
2024/04/23 07:30:26;;;;;;;3.28;2.13;;;13.10;88.90;;;;;;5346558;26;20469;-39
2024/04/23 07:32:55;;;;;;;3.88;2.10;;;13.10;88.90;;;;;;5345933;26;19997;-40
2024/04/23 07:35:24;;;;;;;3.08;2.17;;;13.10;88.80;;;;;;5345345;26;20553;-41
2024/04/23 07:37:50;;;;;;;2.95;2.05;;;13.20;88.80;;;;;;5345327;26;19997;-39
2024/04/23 07:40:16;;;;;;;2.38;1.80;;;13.20;88.80;;;;;;5345919;26;20037;-40
2024/04/23 07:42:41;;;;;;;2.92;2.13;;;13.20;89.50;;;;;;5345743;26;20079;-42
2024/04/23 07:45:09;;;;;;;2.42;1.60;;;13.20;88.80;;;;;;5345794;26;20009;-41
2024/04/23 07:47:37;;;;;;;2.95;2.10;;;13.20;88.90;;;;;;5346099;26;20065;-39
2024/04/23 07:50:03;;;;;;;3.17;2.00;;;13.20;89.00;;;;;;5345145;26;20451;-40
2024/04/23 07:52:29;;;;;;;3.60;1.88;;;13.20;89.00;;;;;;5346415;26;20009;-40
2024/04/23 07:54:54;;;;;;;12.75;4.35;;;13.20;88.40;;;;;;5344676;26;20012;-39
2024/04/23 07:57:20;;;;;;;7.82;4.05;;;13.10;80.00;;;;;;5346188;26;20000;-39
2024/04/23 07:59:46;;;;;;;9.20;3.97;;;12.90;80.70;;;;;;5345985;26;20469;-40
2024/04/23 08:02:12;;;;;;;6.97;3.75;;;12.90;82.50;;;;;;5344889;26;20454;-40
2024/04/23 08:04:37;;;;;;;5.03;3.33;;;12.90;83.70;;;;;;5348912;26;20011;-38
2024/04/23 08:07:04;;;;;;;4.85;3.13;;;12.90;84.60;;;;;;5348451;26;20008;-38
2024/04/23 08:09:29;;;;;;;6.47;3.65;;;13.00;84.90;;;;;;5348600;26;20011;-41
2024/04/23 08:11:55;;;;;;;6.13;2.92;;;13.00;85.10;;;;;;5349604;26;20346;-40
2024/04/23 08:14:21;;;;;;;4.63;2.88;;;13.10;85.30;;;;;;5348715;26;20007;-38
2024/04/23 08:16:47;;;;;;;7.10;2.67;;;13.10;85.40;;;;;;5349261;26;20334;-38
2024/04/23 08:19:13;;;;;;;7.15;2.97;;;13.20;85.60;;;;;;5348919;26;20425;-39
2024/04/23 08:21:39;;;;;;;3.97;2.53;;;13.20;85.60;;;;;;5349131;26;20008;-40
2024/04/23 08:24:09;;;;;;;5.28;2.83;;;13.20;85.60;;;;;;5348707;26;20008;-39
2024/04/23 08:26:35;;;;;;;6.68;2.65;;;13.30;85.80;;;;;;5348222;26;20074;-38
2024/04/23 08:29:01;;;;;;;5.72;2.70;;;13.30;85.90;;;;;;5348314;26;19996;-39
2024/04/23 08:31:27;;;;;;;3.45;2.25;;;13.40;85.90;;;;;;5348309;26;20012;-38
2024/04/23 08:33:53;;;;;;;3.88;2.00;;;13.40;86.00;;;;;;5348557;26;19997;-40
2024/04/23 08:36:19;;;;;;;3.05;2.20;;;13.50;86.00;;;;;;5349951;26;20728;-41
2024/04/23 08:38:44;;;;;;;5.78;2.42;;;13.50;85.90;;;;;;5348672;26;20023;-39
2024/04/23 08:41:18;;;;;;;2.78;2.13;;;13.60;86.00;;;;;;5349574;26;19993;-38
2024/04/23 08:43:55;;;;;;;4.38;2.28;;;13.60;86.00;;;;;;5348711;26;20005;-40
2024/04/23 08:46:22;;;;;;;4.15;2.08;;;13.70;86.00;;;;;;5349700;26;20008;-40
2024/04/23 08:48:48;;;;;;;3.60;2.10;;;13.70;86.00;;;;;;5348008;26;19997;-40
2024/04/23 08:51:14;;;;;;;2.90;2.00;;;13.70;86.00;;;;;;5347677;26;20021;-40
2024/04/23 08:53:42;;;;;;;5.57;2.17;;;13.70;86.00;;;;;;5348553;26;20450;-38
2024/04/23 08:56:12;;;;;;;2.95;2.10;;;13.80;86.00;;;;;;5348717;26;19993;-39
2024/04/23 08:58:40;;;;;;;6.15;2.03;;;13.80;86.10;;;;;;5347325;26;20001;-38
2024/04/23 09:01:07;;;;;;;4.38;2.17;;;13.90;86.10;;;;;;5347804;26;20000;-38
2024/04/23 09:03:44;;;;;;;2.25;1.50;;;13.90;86.00;;;;;;5348745;26;20071;-40
2024/04/23 09:06:10;;;;;;;2.30;1.63;;;13.90;86.00;;;;;;5347763;26;20005;-40
2024/04/23 09:08:36;;;;;;;3.45;1.70;;;14.00;86.10;;;;;;5347730;26;19997;-40
2024/04/23 09:11:03;;;;;;;2.70;1.88;;;14.00;86.10;;;;;;5348285;26;20373;-37
2024/04/23 09:13:29;;;;;;;2.65;1.98;;;14.00;86.10;;;;;;5348713;26;20005;-39
2024/04/23 09:15:56;;;;;;;4.22;2.03;;;14.10;86.20;;;;;;5347373;26;20007;-39
2024/04/23 09:18:22;;;;;;;2.45;1.70;;;14.10;86.10;;;;;;5347328;26;20332;-37
2024/04/23 09:20:48;;;;;;;3.17;2.00;;;14.20;86.10;;;;;;5347753;26;19997;-38
2024/04/23 09:23:17;;;;;;;2.70;1.90;;;14.20;86.10;;;;;;5347843;26;19997;-39
2024/04/23 09:25:43;;;;;;;3.80;2.25;;;14.20;86.10;;;;;;5347324;26;19993;-38
2024/04/23 09:28:20;;;;;;;4.15;2.00;;;14.30;86.00;;;;;;5347085;26;20335;-38
2024/04/23 09:30:48;;;;;;;3.08;1.70;;;14.30;85.90;;;;;;5349200;26;20051;-40
2024/04/23 09:33:13;;;;;;;3.03;2.05;;;14.40;85.90;;;;;;5347220;26;19997;-38
2024/04/23 09:35:39;;;;;;;3.30;1.77;;;14.40;85.90;;;;;;5348109;26;19989;-41
2024/04/23 09:38:05;;;;;;;2.47;1.60;;;14.40;85.80;;;;;;5347884;26;20004;-39
2024/04/23 09:40:40;;;;;;;2.67;1.73;;;14.50;85.80;;;;;;5348584;26;20438;-38
2024/04/23 09:43:06;;;;;;;2.65;1.80;;;14.50;85.70;;;;;;5348977;26;20000;-42
2024/04/23 09:45:32;;;;;;;2.83;1.80;;;14.50;85.70;;;;;;5348368;26;20007;-38
2024/04/23 09:47:57;;;;;;;2.17;1.50;;;14.60;85.70;;;;;;5347883;26;20007;-38
2024/04/23 09:50:28;;;;;;;3.70;1.40;;;14.60;85.70;;;;;;5347757;26;20372;-40
2024/04/23 09:53:01;;;;;;;3.22;1.65;;;14.60;85.70;;;;;;5348393;26;20361;-40
2024/04/23 09:55:26;;;;;;;3.58;1.92;;;14.60;85.70;;;;;;5347424;26;20007;-38
2024/04/23 09:57:52;;;;;;;2.65;1.58;;;14.70;85.60;;;;;;5347902;26;20001;-38
2024/04/23 10:00:20;;;;;;;2.05;1.48;;;14.80;85.60;;;;;;5349096;26;20442;-38
2024/04/23 10:02:53;;;;;;;3.10;2.10;;;14.80;85.50;;;;;;5347872;26;20013;-38
2024/04/23 10:05:27;;;;;;;2.50;1.77;;;14.90;85.50;;;;;;5346775;26;19997;-38
2024/04/23 10:08:04;;;;;;;2.63;1.80;;;14.90;85.40;;;;;;5347870;26;20075;-42
2024/04/23 10:10:51;;;;;;;2.28;1.70;;;14.90;85.30;;;;;;5348743;26;20001;-41
2024/04/23 10:13:31;;;;;;;2.33;1.60;;;15.00;85.20;;;;;;5348025;26;20071;-38
2024/04/23 10:16:02;;;;;;;3.75;1.70;;;15.00;85.10;;;;;;5348591;26;20074;-39
2024/04/23 10:18:40;;;;;;;2.72;1.42;;;15.00;85.10;;;;;;5346124;26;20410;-39
2024/04/23 10:21:09;;;;;;;3.28;1.40;;;15.10;85.10;;;;;;5346360;26;20025;-38
2024/04/23 10:23:37;;;;;;;2.80;1.75;;;15.10;85.10;;;;;;5348290;26;19993;-38
2024/04/23 10:26:03;;;;;;;1.98;1.65;;;15.10;85.10;;;;;;5348138;26;19997;-38
2024/04/23 10:28:29;;;;;;;2.05;1.50;;;15.20;85.10;;;;;;5346442;26;19997;-38
2024/04/23 10:30:55;;;;;;;1.92;1.63;;;15.20;85.00;;;;;;5347694;26;20001;-40
2024/04/23 10:33:22;;;;;;;3.75;2.05;;;15.20;85.00;;;;;;5346301;26;20001;-41
2024/04/23 10:35:48;;;;;;;2.15;1.50;;;15.20;85.00;;;;;;5346569;26;20465;-41
2024/04/23 10:38:15;;;;;;;2.47;1.73;;;15.30;85.00;;;;;;5346956;26;20008;-40
2024/04/23 10:40:47;;;;;;;2.25;1.50;;;15.30;84.90;;;;;;5346086;26;20013;-41
2024/04/23 10:43:15;;;;;;;2.15;1.55;;;15.30;84.90;;;;;;5347295;26;20012;-41
2024/04/23 10:45:41;;;;;;;1.85;1.40;;;15.30;85.00;;;;;;5347013;26;20451;-40
2024/04/23 10:48:08;;;;;;;1.80;1.42;;;15.40;85.10;;;;;;5348058;26;19996;-42
2024/04/23 10:50:34;;;;;;;1.92;1.42;;;15.40;85.00;;;;;;5347089;26;20009;-39
2024/04/23 10:53:03;;;;;;;2.10;1.60;;;15.30;85.00;;;;;;5346932;26;20454;-41
2024/04/23 10:55:29;;;;;;;2.65;1.58;;;15.40;85.10;;;;;;5346430;26;20001;-40
2024/04/23 10:57:57;;;;;;;4.28;1.60;;;15.30;84.90;;;;;;5346470;26;20088;-40
2024/04/23 11:00:34;;;;;;;1.67;1.30;;;15.40;85.10;;;;;;5347357;26;20005;-39
2024/04/23 11:02:59;;;;;;;1.95;1.35;;;15.40;85.20;;;;;;5347035;26;20020;-41
2024/04/23 11:05:43;;;;;;;3.08;1.63;;;15.30;85.20;;;;;;5345700;26;19992;-39
2024/04/23 11:08:09;;;;;;;2.75;1.90;;;15.30;85.30;;;;;;5345806;26;19997;-40
2024/04/23 11:10:49;;;;;;;3.25;1.45;;;15.40;85.30;;;;;;5345757;26;20484;-43
2024/04/23 11:13:28;;;;;;;2.08;1.40;;;15.40;85.20;;;;;;5346717;26;20008;-39
2024/04/23 11:15:55;;;;;;;1.88;1.50;;;15.40;85.20;;;;;;5347360;26;20008;-41
2024/04/23 11:18:25;;;;;;;2.05;1.40;;;15.40;85.00;;;;;;5346087;26;20001;-39
2024/04/23 11:20:55;;;;;;;2.35;1.65;;;15.50;85.70;;;;;;5346112;26;20081;-38
2024/04/23 11:23:24;;;;;;;1.90;1.30;;;15.50;84.90;;;;;;5346007;26;20001;-40
2024/04/23 11:25:51;;;;;;;3.30;1.80;;;15.50;84.80;;;;;;5347487;26;20319;-41
2024/04/23 11:28:17;;;;;;;2.05;1.60;;;15.50;84.90;;;;;;5346269;26;20001;-49
2024/04/23 11:30:51;;;;;;;2.22;1.35;;;15.50;85.00;;;;;;5345942;26;20013;-39
2024/04/23 11:33:19;;;;;;;2.25;1.55;;;15.50;85.80;;;;;;5344597;26;20012;-41
2024/04/23 11:35:50;;;;;;;2.60;1.55;;;15.50;85.00;;;;;;5346230;26;19996;-41
2024/04/23 11:38:15;;;;;;;4.97;1.75;;;15.50;85.00;;;;;;5344461;26;20040;-39
2024/04/23 11:40:41;;;;;;;2.78;1.58;;;15.50;85.10;;;;;;5346956;26;20008;-39
2024/04/23 11:43:07;;;;;;;1.70;1.33;;;15.50;85.10;;;;;;5346159;26;20005;-39
2024/04/23 11:45:33;;;;;;;3.33;1.70;;;15.40;85.20;;;;;;5345632;26;19997;-39
2024/04/23 11:48:01;;;;;;;2.58;1.52;;;15.40;85.20;;;;;;5345277;26;20012;-39
2024/04/23 11:50:26;;;;;;;2.00;1.48;;;15.40;85.10;;;;;;5346579;26;19997;-39
2024/04/23 11:52:52;;;;;;;7.53;1.80;;;15.50;85.10;;;;;;5346243;26;20012;-40
2024/04/23 11:55:18;;;;;;;1.67;1.25;;;15.50;85.10;;;;;;5345001;26;20071;-39
2024/04/23 11:57:43;;;;;;;2.03;1.48;;;15.50;85.00;;;;;;5346189;26;20442;-41
2024/04/23 12:00:10;;;;;;;1.75;1.33;;;15.50;85.00;;;;;;5345771;26;19997;-38
2024/04/23 12:02:36;;;;;;;2.58;1.52;;;15.50;85.10;;;;;;5346472;26;20005;-40
2024/04/23 12:05:03;;;;;;;1.90;1.38;;;15.50;85.10;;;;;;5345163;26;19997;-41
2024/04/23 12:07:29;;;;;;;2.22;1.75;;;15.50;85.20;;;;;;5345128;26;20070;-39
2024/04/23 12:10:03;;;;;;;1.88;1.30;;;15.50;85.20;;;;;;5345870;26;19997;-41
2024/04/23 12:12:30;;;;;;;2.50;1.70;;;15.50;85.20;;;;;;5345389;26;20021;-38
2024/04/23 12:14:56;;;;;;;1.88;1.35;;;15.60;85.20;;;;;;5344908;26;20462;-39
2024/04/23 12:17:22;;;;;;;2.53;1.42;;;15.60;85.20;;;;;;5345013;26;20048;-40
2024/04/23 12:19:47;;;;;;;1.48;1.13;;;15.50;85.10;;;;;;5344547;26;20084;-40
2024/04/23 12:22:15;;;;;;;2.60;1.60;;;15.60;85.10;;;;;;5345261;26;20009;-41
2024/04/23 12:24:41;;;;;;;2.00;1.42;;;15.60;85.10;;;;;;5345088;26;20001;-39
2024/04/23 12:27:07;;;;;;;2.10;1.45;;;15.60;85.20;;;;;;5345056;26;20436;-39
2024/04/23 12:29:33;;;;;;;2.45;1.52;;;15.50;85.20;;;;;;5345642;26;20014;-41
2024/04/23 12:32:00;;;;;;;2.47;1.38;;;15.50;85.20;;;;;;5345255;26;19997;-40
2024/04/23 12:34:26;;;;;;;2.08;1.27;;;15.50;85.30;;;;;;5344658;26;20012;-41
2024/04/23 12:36:51;;;;;;;1.33;1.17;;;15.50;85.30;;;;;;5345736;26;19994;-39
2024/04/23 12:39:17;;;;;;;2.25;1.40;;;15.50;85.40;;;;;;5345241;26;20012;-38
2024/04/23 12:41:43;;;;;;;2.90;1.40;;;15.50;85.40;;;;;;5345605;26;20074;-40
2024/04/23 12:44:16;;;;;;;2.20;1.40;;;15.50;85.40;;;;;;5345121;26;20366;-39
2024/04/23 12:46:42;;;;;;;3.17;1.30;;;15.50;85.40;;;;;;5344883;26;20011;-39
2024/04/23 12:49:08;;;;;;;4.47;3.30;;;15.40;85.40;;;;;;5345187;26;20469;-40
2024/04/23 12:51:34;;;;;;;10.85;2.97;;;15.40;73.90;;;;;;5348901;26;20008;-38
2024/04/23 12:54:00;;;;;;;6.20;2.80;;;15.30;72.70;;;;;;5349876;26;20001;-39